Time;durP1;ratioP1;P1;durP2;ratioP2;P2;SDS_P1;SDS_P2;PMS_P1;PMS_P2;Temp;Humidity;BMP_temperature;BMP_pressure;BME280_temperature;BME280_humidity;BME280_pressure;Samples;Min_cycle;Max_cycle;Signal;HPM_P1;HPM_P2
2023/12/10 00:02:22;;;;;;;23.73;5.32;;;;;;;8.28;98.33;99787.63;5113052;28;20027;-58
2023/12/10 00:04:48;;;;;;;29.23;5.47;;;;;;;8.37;97.76;99777.22;5110319;28;20112;-58
2023/12/10 00:07:14;;;;;;;30.30;6.40;;;;;;;8.32;97.29;99775.84;5112918;28;20023;-58
2023/12/10 00:09:40;;;;;;;25.65;6.10;;;;;;;8.34;97.24;99785.41;5112707;28;20106;-58
2023/12/10 00:12:10;;;;;;;27.00;5.75;;;;;;;8.28;97.84;99777.88;5096786;28;20115;-58
2023/12/10 00:14:36;;;;;;;28.40;5.10;;;;;;;8.36;96.33;99778.19;5112374;27;20114;-58
2023/12/10 00:17:01;;;;;;;26.27;6.22;;;;;;;8.28;98.18;99777.03;5112647;28;20095;-58
2023/12/10 00:19:27;;;;;;;18.75;4.53;;;;;;;8.34;96.76;99781.91;5112669;28;20024;-58
2023/12/10 00:21:53;;;;;;;27.77;6.38;;;;;;;8.47;97.03;99790.72;5094004;28;20143;-58
2023/12/10 00:24:23;;;;;;;37.78;7.13;;;;;;;8.36;97.81;99794.09;5116154;27;20024;-58
2023/12/10 00:26:48;;;;;;;26.08;5.82;;;;;;;8.39;96.01;99806.31;5113477;27;20047;-59
2023/12/10 00:29:14;;;;;;;18.30;4.75;;;;;;;8.43;95.67;99797.19;5112629;28;20027;-58
2023/12/10 00:31:43;;;;;;;30.60;7.70;;;;;;;8.37;95.91;99808.19;5094061;28;20040;-59
2023/12/10 00:34:09;;;;;;;27.10;5.78;;;;;;;8.40;95.27;99800.88;5109946;28;20077;-58
2023/12/10 00:36:35;;;;;;;19.40;6.38;;;;;;;8.37;95.65;99818.78;5094361;28;20447;-58
2023/12/10 00:39:00;;;;;;;22.95;5.50;;;;;;;8.44;94.86;99821.88;5093601;28;20516;-58
2023/12/10 00:41:25;;;;;;;27.33;5.20;;;;;;;8.39;95.77;99806.31;5112297;28;20028;-59
2023/12/10 00:43:51;;;;;;;25.25;5.35;;;;;;;8.50;95.13;99817.00;5093851;28;20409;-58
2023/12/10 00:46:16;;;;;;;24.98;5.30;;;;;;;8.37;95.41;99809.03;5112052;28;20024;-58
2023/12/10 00:48:43;;;;;;;20.05;5.22;;;;;;;8.35;96.22;99810.09;5111824;28;20080;-59
2023/12/10 00:51:17;;;;;;;25.23;6.03;;;;;;;8.37;94.89;99803.72;5112945;28;20015;-59
2023/12/10 00:53:43;;;;;;;24.92;5.45;;;;;;;8.46;94.29;99823.47;5096950;28;20028;-58
2023/12/10 00:56:08;;;;;;;22.98;5.18;;;;;;;8.32;94.68;99832.34;5117929;27;20022;-59
2023/12/10 00:58:34;;;;;;;27.50;5.78;;;;;;;8.32;95.55;99834.13;5093625;28;20044;-58
2023/12/10 01:00:59;;;;;;;21.40;5.70;;;;;;;8.30;96.03;99842.22;5111549;28;20028;-58
2023/12/10 01:03:25;;;;;;;21.95;6.20;;;;;;;8.22;96.37;99839.25;5092758;28;20223;-58
2023/12/10 01:05:50;;;;;;;18.88;4.85;;;;;;;8.38;95.38;99844.31;5111580;28;20033;-58
2023/12/10 01:08:16;;;;;;;18.48;5.55;;;;;;;8.45;94.44;99842.97;5112053;28;20067;-58
2023/12/10 01:10:41;;;;;;;25.35;6.22;;;;;;;8.25;96.67;99868.16;5111404;28;20110;-59
2023/12/10 01:13:09;;;;;;;24.52;6.18;;;;;;;8.32;95.57;99840.28;5097311;28;20126;-58
2023/12/10 01:15:35;;;;;;;21.90;5.07;;;;;;;8.35;96.00;99849.81;5114329;27;20027;-58
2023/12/10 01:18:03;;;;;;;21.75;4.65;;;;;;;8.36;95.84;99862.97;5116910;27;20053;-58
2023/12/10 01:20:30;;;;;;;37.03;6.18;;;;;;;8.46;94.90;99841.16;5096153;28;20023;-59
2023/12/10 01:22:56;;;;;;;19.70;4.95;;;;;;;8.27;95.91;99862.78;5111123;28;20028;-58
2023/12/10 01:25:24;;;;;;;28.98;5.97;;;;;;;8.33;94.82;99846.44;5110768;28;20382;-58
2023/12/10 01:27:51;;;;;;;22.67;5.38;;;;;;;8.37;94.53;99871.75;5093699;28;20031;-58
2023/12/10 01:30:17;;;;;;;26.60;5.25;;;;;;;8.28;94.69;99860.00;5110975;28;20106;-59
2023/12/10 01:32:42;;;;;;;24.60;4.72;;;;;;;8.34;95.13;99859.56;5095021;27;20019;-59
2023/12/10 01:35:08;;;;;;;28.55;5.80;;;;;;;8.31;93.91;99882.78;5093168;28;20059;-59
2023/12/10 01:37:34;;;;;;;15.82;5.20;;;;;;;8.28;95.31;99883.84;5118076;27;20019;-58
2023/12/10 01:39:59;;;;;;;24.17;5.05;;;;;;;8.29;94.82;99890.81;5112332;27;20023;-58
2023/12/10 01:42:27;;;;;;;18.90;4.95;;;;;;;8.39;93.82;99889.28;5114421;28;20016;-58
2023/12/10 01:44:53;;;;;;;14.15;4.05;;;;;;;8.29;95.06;99871.44;5113041;28;20706;-59
2023/12/10 01:47:19;;;;;;;16.58;4.22;;;;;;;8.39;94.43;99899.03;5111911;28;20107;-59
2023/12/10 01:49:46;;;;;;;15.60;5.25;;;;;;;8.23;96.61;99908.94;5095729;28;20072;-59
2023/12/10 01:52:12;;;;;;;23.05;4.65;;;;;;;8.22;96.96;99917.88;5108251;28;20027;-58
2023/12/10 01:54:37;;;;;;;14.32;3.78;;;;;;;8.10;96.88;99904.50;5093471;28;20027;-58
2023/12/10 01:57:03;;;;;;;19.00;3.88;;;;;;;8.09;96.56;99912.53;5114018;28;20060;-58
2023/12/10 01:59:29;;;;;;;23.35;5.72;;;;;;;8.01;98.66;99918.38;5114932;28;20023;-58
2023/12/10 02:01:55;;;;;;;16.88;4.68;;;;;;;8.06;97.30;99888.91;5091897;28;20042;-58
2023/12/10 02:04:21;;;;;;;18.30;5.38;;;;;;;8.04;97.58;99917.31;5111386;28;20072;-58
2023/12/10 02:06:46;;;;;;;21.38;4.88;;;;;;;7.93;99.71;99920.69;5113176;28;20046;-58
2023/12/10 02:09:15;;;;;;;13.25;4.32;;;;;;;7.86;99.89;99914.94;5097342;28;20110;-58
2023/12/10 02:11:41;;;;;;;20.95;4.28;;;;;;;7.83;99.93;99925.75;5092784;28;20023;-58
2023/12/10 02:14:09;;;;;;;16.08;4.07;;;;;;;7.87;99.07;99906.03;5117167;28;20517;-58
2023/12/10 02:16:34;;;;;;;19.45;4.80;;;;;;;7.81;100.00;99926.78;5097642;27;20019;-58
2023/12/10 02:19:00;;;;;;;18.08;4.35;;;;;;;7.83;99.20;99909.03;5098064;27;20077;-58
2023/12/10 02:21:26;;;;;;;23.15;4.53;;;;;;;7.74;100.00;99910.47;5116024;27;20049;-58
2023/12/10 02:24:00;;;;;;;26.10;4.72;;;;;;;7.75;100.00;99922.75;5096712;28;20023;-58
2023/12/10 02:26:26;;;;;;;15.52;4.85;;;;;;;7.92;98.66;99921.63;5116464;27;20058;-58
2023/12/10 02:28:52;;;;;;;18.88;4.95;;;;;;;7.66;99.87;99908.31;5096389;28;20019;-58
2023/12/10 02:31:19;;;;;;;17.70;5.65;;;;;;;8.06;96.98;99908.31;5116771;27;20216;-58
2023/12/10 02:33:46;;;;;;;12.98;3.90;;;;;;;7.90;96.89;99920.88;5114580;28;20051;-58
2023/12/10 02:36:12;;;;;;;18.90;5.00;;;;;;;7.82;98.29;99945.19;5113535;27;20094;-58
2023/12/10 02:38:38;;;;;;;21.27;4.88;;;;;;;7.82;97.16;99931.13;5113482;27;20024;-58
2023/12/10 02:41:04;;;;;;;21.20;4.07;;;;;;;7.78;97.60;99927.84;5115923;27;20023;-58
2023/12/10 02:43:29;;;;;;;23.23;4.47;;;;;;;7.97;96.16;99940.69;5114810;27;20023;-58
2023/12/10 02:45:55;;;;;;;17.00;3.92;;;;;;;7.75;98.78;99928.03;5114070;27;20024;-58
2023/12/10 02:48:22;;;;;;;18.63;5.30;;;;;;;7.83;97.27;99932.84;5118174;27;20038;-58
2023/12/10 02:50:52;;;;;;;23.58;5.55;;;;;;;7.80;97.07;99925.09;5114429;27;20047;-58
2023/12/10 02:53:18;;;;;;;21.88;4.57;;;;;;;7.84;96.65;99945.13;5115425;27;20106;-58
2023/12/10 02:55:43;;;;;;;21.30;5.05;;;;;;;7.80;96.43;99944.47;5116040;27;20028;-58
2023/12/10 02:58:09;;;;;;;18.13;4.35;;;;;;;7.92;94.87;99961.34;5114557;28;20102;-58
2023/12/10 03:00:35;;;;;;;9.82;3.80;;;;;;;7.98;95.91;99960.94;5095276;28;20054;-58
2023/12/10 03:03:01;;;;;;;29.17;5.15;;;;;;;7.80;96.48;99954.22;5096401;28;20050;-58
2023/12/10 03:05:26;;;;;;;21.92;4.00;;;;;;;7.84;94.58;99938.03;5114441;28;20019;-58
2023/12/10 03:07:52;;;;;;;19.17;5.03;;;;;;;7.93;94.44;99961.22;5114012;28;20026;-58
2023/12/10 03:10:19;;;;;;;23.90;4.65;;;;;;;7.87;94.42;99948.41;5116356;27;20481;-58
2023/12/10 03:12:44;;;;;;;17.88;5.38;;;;;;;7.82;95.33;99961.09;5116878;27;20023;-58
2023/12/10 03:15:09;;;;;;;15.38;4.43;;;;;;;7.87;94.73;99959.00;5114664;27;20080;-58
2023/12/10 03:17:35;;;;;;;20.92;5.32;;;;;;;8.04;94.25;99981.72;5096766;27;20549;-58
2023/12/10 03:20:00;;;;;;;16.77;4.65;;;;;;;7.97;92.74;99957.44;5113778;27;20034;-58
2023/12/10 03:22:26;;;;;;;25.20;6.43;;;;;;;8.02;91.55;99972.16;5099158;28;20718;-58
2023/12/10 03:24:53;;;;;;;21.20;4.45;;;;;;;8.00;92.85;99976.72;5077789;28;20020;-58
2023/12/10 03:27:19;;;;;;;19.23;5.00;;;;;;;8.09;91.62;99982.25;5112711;28;20097;-58
2023/12/10 03:29:44;;;;;;;15.70;5.50;;;;;;;8.09;91.72;99986.69;5113155;28;20031;-58
2023/12/10 03:32:12;;;;;;;19.30;4.75;;;;;;;7.99;91.93;99977.66;5115095;27;20059;-58
2023/12/10 03:34:41;;;;;;;14.93;3.92;;;;;;;8.16;90.28;100002.06;5113902;27;20023;-58
2023/12/10 03:37:07;;;;;;;16.27;4.05;;;;;;;8.00;92.41;99972.28;5113668;28;20032;-58
2023/12/10 03:39:33;;;;;;;18.83;4.28;;;;;;;8.00;91.74;99998.75;5095480;28;20024;-58
2023/12/10 03:41:58;;;;;;;19.33;4.60;;;;;;;8.03;91.95;99987.97;5116360;27;20103;-58
2023/12/10 03:44:23;;;;;;;22.63;4.13;;;;;;;8.05;90.40;100009.88;5114320;27;20065;-58
2023/12/10 03:46:49;;;;;;;14.40;4.95;;;;;;;8.11;90.56;99990.09;5113018;28;20440;-59
2023/12/10 03:49:14;;;;;;;20.35;4.45;;;;;;;8.15;89.41;99994.25;5095210;28;20024;-58
2023/12/10 03:51:40;;;;;;;21.02;5.20;;;;;;;8.18;88.35;100013.44;5113368;28;20036;-58
2023/12/10 03:54:05;;;;;;;14.73;4.28;;;;;;;8.17;89.76;100014.34;5095604;28;20047;-58
2023/12/10 03:56:31;;;;;;;20.80;4.68;;;;;;;8.12;89.49;100008.53;5114224;27;20405;-58
2023/12/10 03:58:56;;;;;;;18.05;4.47;;;;;;;8.12;89.14;99992.66;5094698;28;20054;-58
2023/12/10 04:01:22;;;;;;;21.92;4.63;;;;;;;8.14;88.71;100017.22;5112245;27;20034;-58
2023/12/10 04:03:47;;;;;;;16.02;4.40;;;;;;;8.13;88.16;100007.56;5113318;27;20114;-58
2023/12/10 04:06:13;;;;;;;16.60;4.60;;;;;;;8.32;86.95;100033.69;5113396;27;20069;-58
2023/12/10 04:08:38;;;;;;;20.17;5.07;;;;;;;8.22;87.92;100032.59;5095281;28;20024;-58
2023/12/10 04:11:04;;;;;;;22.95;4.43;;;;;;;8.22;88.29;100022.00;5112970;27;20083;-58
2023/12/10 04:13:30;;;;;;;25.75;4.65;;;;;;;8.11;88.34;100027.16;5096502;28;20035;-58
2023/12/10 04:15:55;;;;;;;13.77;3.50;;;;;;;8.18;87.46;100036.41;5113162;27;20108;-58
2023/12/10 04:18:21;;;;;;;12.98;3.10;;;;;;;8.20;87.30;100032.69;5112962;28;20038;-58
2023/12/10 04:20:46;;;;;;;18.73;4.88;;;;;;;8.18;88.39;100034.63;5113417;27;20030;-58
2023/12/10 04:23:12;;;;;;;22.48;4.40;;;;;;;8.14;88.87;100051.63;5115241;27;20059;-59
2023/12/10 04:25:37;;;;;;;15.43;4.00;;;;;;;8.26;86.21;100043.84;5093821;28;20027;-58
2023/12/10 04:28:03;;;;;;;15.00;4.05;;;;;;;8.31;86.80;100037.28;5113027;27;20039;-58
2023/12/10 04:30:29;;;;;;;12.40;3.42;;;;;;;8.31;86.16;100050.53;5095795;27;20035;-58
2023/12/10 04:32:54;;;;;;;16.27;4.75;;;;;;;8.24;86.34;100061.66;5095186;28;20080;-58
2023/12/10 04:35:20;;;;;;;18.88;4.43;;;;;;;8.23;86.43;100065.25;5111250;28;20039;-58
2023/12/10 04:37:46;;;;;;;16.90;3.67;;;;;;;8.20;86.19;100045.94;5116256;27;20020;-58
2023/12/10 04:40:11;;;;;;;16.60;4.75;;;;;;;8.27;85.52;100064.09;5093904;28;20428;-58
2023/12/10 04:42:38;;;;;;;19.52;4.13;;;;;;;8.19;85.89;100080.50;5094275;28;20031;-58
2023/12/10 04:45:06;;;;;;;19.08;4.90;;;;;;;8.31;85.23;100081.47;5077370;28;20038;-58
2023/12/10 04:47:32;;;;;;;17.52;3.92;;;;;;;8.29;85.38;100078.06;5100619;28;20051;-58
2023/12/10 04:50:02;;;;;;;18.80;4.10;;;;;;;8.24;85.92;100090.78;5114840;27;20055;-58
2023/12/10 04:52:27;;;;;;;13.02;4.13;;;;;;;8.26;86.65;100102.13;5094184;28;20092;-58
2023/12/10 04:54:53;;;;;;;17.25;3.85;;;;;;;8.19;86.29;100094.56;5093859;28;20458;-58
2023/12/10 04:57:18;;;;;;;19.00;3.90;;;;;;;8.19;86.11;100091.09;5112683;27;20421;-58
2023/12/10 04:59:44;;;;;;;15.52;4.32;;;;;;;8.35;85.92;100112.09;5115358;27;20344;-58
2023/12/10 05:02:09;;;;;;;16.73;5.18;;;;;;;8.32;84.73;100114.97;5113116;27;20474;-58
2023/12/10 05:04:35;;;;;;;16.83;4.32;;;;;;;8.25;85.85;100148.97;5111946;28;20453;-59
2023/12/10 05:07:00;;;;;;;22.20;5.82;;;;;;;8.40;83.68;100132.09;5093784;28;20023;-58
2023/12/10 05:09:26;;;;;;;19.98;4.00;;;;;;;8.39;84.27;100142.81;5114163;27;20027;-58
2023/12/10 05:11:52;;;;;;;12.95;4.03;;;;;;;8.43;84.06;100151.41;5080791;28;20020;-58
2023/12/10 05:14:17;;;;;;;12.00;3.60;;;;;;;8.33;84.53;100140.53;5094734;28;20031;-58
2023/12/10 05:16:43;;;;;;;18.98;5.22;;;;;;;8.36;84.87;100159.72;5094198;28;20378;-58
2023/12/10 05:19:08;;;;;;;15.82;4.68;;;;;;;8.34;84.92;100142.22;5111978;28;20031;-59
2023/12/10 05:21:34;;;;;;;15.93;3.80;;;;;;;8.52;83.88;100158.75;5112278;27;20095;-58
2023/12/10 05:24:02;;;;;;;14.07;3.97;;;;;;;8.43;83.71;100181.38;5111731;28;20161;-58
2023/12/10 05:26:28;;;;;;;21.80;5.30;;;;;;;8.33;84.79;100151.13;5092643;28;20047;-59
2023/12/10 05:28:53;;;;;;;16.38;4.25;;;;;;;8.35;84.43;100173.94;5112033;28;20030;-58
2023/12/10 05:31:18;;;;;;;18.60;4.47;;;;;;;8.35;84.33;100171.28;5113555;27;20019;-58
2023/12/10 05:33:44;;;;;;;28.05;6.47;;;;;;;8.37;83.81;100164.06;5094693;28;20023;-58
2023/12/10 05:36:11;;;;;;;17.65;5.07;;;;;;;8.38;84.26;100194.94;5111251;28;20021;-58
2023/12/10 05:38:37;;;;;;;21.50;4.45;;;;;;;8.32;84.75;100200.59;5108712;28;20034;-58
2023/12/10 05:41:02;;;;;;;14.77;4.22;;;;;;;8.45;83.76;100206.00;5111255;28;20024;-58
2023/12/10 05:43:28;;;;;;;15.25;4.47;;;;;;;8.47;83.23;100201.47;5094554;28;20163;-59
2023/12/10 05:45:53;;;;;;;26.00;5.60;;;;;;;8.40;84.19;100200.13;5111574;28;20031;-58
2023/12/10 05:48:20;;;;;;;19.45;4.15;;;;;;;8.35;85.17;100213.66;5112127;28;20474;-58
2023/12/10 05:50:46;;;;;;;15.43;4.82;;;;;;;8.31;84.31;100200.69;5112762;27;20047;-58
2023/12/10 05:53:11;;;;;;;17.40;3.80;;;;;;;8.33;84.69;100201.47;5111400;28;20027;-59
2023/12/10 05:55:37;;;;;;;18.20;3.83;;;;;;;8.31;84.51;100206.84;5111615;28;20110;-58
2023/12/10 05:58:02;;;;;;;27.10;4.50;;;;;;;8.30;85.20;100231.66;5112256;28;20063;-58
2023/12/10 06:00:27;;;;;;;23.98;5.40;;;;;;;8.33;84.42;100220.84;5090940;28;20030;-58
2023/12/10 06:02:53;;;;;;;21.08;4.25;;;;;;;8.36;84.82;100233.91;5111329;28;20092;-58
2023/12/10 06:05:18;;;;;;;30.67;4.85;;;;;;;8.52;83.76;100239.09;5094654;28;20027;-58
2023/12/10 06:07:44;;;;;;;16.20;4.22;;;;;;;8.42;83.62;100230.03;5111556;28;20046;-58
2023/12/10 06:10:09;;;;;;;13.02;4.22;;;;;;;8.48;83.85;100236.75;5097166;28;20066;-58
2023/12/10 06:12:35;;;;;;;20.75;4.68;;;;;;;8.37;84.06;100237.41;5105813;28;20036;-58
2023/12/10 06:15:00;;;;;;;16.70;4.43;;;;;;;8.48;83.43;100261.44;5105802;28;20532;-58
2023/12/10 06:17:25;;;;;;;14.07;5.55;;;;;;;8.49;83.35;100249.88;5097907;28;20024;-58
2023/12/10 06:19:51;;;;;;;18.33;4.40;;;;;;;8.51;83.77;100269.22;5113235;28;20023;-58
2023/12/10 06:22:16;;;;;;;22.00;4.65;;;;;;;8.40;84.20;100258.44;5111749;28;20036;-58
2023/12/10 06:24:42;;;;;;;15.60;4.43;;;;;;;8.39;84.58;100270.00;5112010;28;20067;-58
2023/12/10 06:27:07;;;;;;;13.30;4.40;;;;;;;8.40;83.51;100277.81;5110744;28;20127;-58
2023/12/10 06:29:33;;;;;;;20.52;5.28;;;;;;;8.39;84.16;100289.38;5111667;28;20107;-58
2023/12/10 06:31:58;;;;;;;24.00;5.00;;;;;;;8.44;84.26;100299.69;5110641;28;20026;-58
2023/12/10 06:34:23;;;;;;;17.95;4.70;;;;;;;8.40;84.28;100316.72;5112847;28;20076;-58
2023/12/10 06:36:49;;;;;;;18.77;4.95;;;;;;;8.41;84.19;100306.06;5092423;28;20058;-58
2023/12/10 06:39:17;;;;;;;22.77;4.60;;;;;;;8.33;84.97;100313.59;5092575;28;20536;-58
2023/12/10 06:41:42;;;;;;;16.60;4.25;;;;;;;8.28;84.80;100280.38;5117418;28;20027;-58
2023/12/10 06:44:09;;;;;;;13.27;4.53;;;;;;;8.46;84.14;100312.84;5096858;28;20024;-58
2023/12/10 06:46:37;;;;;;;22.77;4.95;;;;;;;8.45;83.76;100312.00;5113106;28;20024;-58
2023/12/10 06:49:02;;;;;;;26.42;5.65;;;;;;;8.36;84.79;100315.19;5110835;28;20114;-58
2023/12/10 06:51:30;;;;;;;18.02;4.72;;;;;;;8.37;84.02;100328.34;5110644;28;20106;-58
2023/12/10 06:53:55;;;;;;;19.30;4.60;;;;;;;8.47;84.14;100341.91;5113547;28;20530;-58
2023/12/10 06:56:20;;;;;;;19.25;5.50;;;;;;;8.36;85.12;100352.28;5092696;28;20102;-58
2023/12/10 06:58:46;;;;;;;24.80;4.80;;;;;;;8.30;84.37;100352.69;5092581;28;20029;-58
2023/12/10 07:01:13;;;;;;;16.85;4.50;;;;;;;8.29;84.67;100357.09;5094415;28;20020;-58
2023/12/10 07:03:39;;;;;;;31.85;6.20;;;;;;;8.16;84.59;100334.97;5096227;28;20359;-58
2023/12/10 07:06:05;;;;;;;20.02;4.15;;;;;;;8.28;84.86;100367.81;5095560;28;20114;-58
2023/12/10 07:08:31;;;;;;;22.00;5.30;;;;;;;8.21;85.56;100359.38;5114335;27;20104;-58
2023/12/10 07:10:59;;;;;;;13.77;4.38;;;;;;;8.28;85.28;100371.28;5115222;27;20470;-58
2023/12/10 07:13:27;;;;;;;25.00;5.03;;;;;;;8.30;85.85;100380.00;5096864;28;20063;-58
2023/12/10 07:15:52;;;;;;;28.02;5.60;;;;;;;8.36;84.92;100366.38;5111344;28;20068;-58
2023/12/10 07:18:18;;;;;;;17.20;4.13;;;;;;;8.43;84.03;100381.94;5118091;27;20035;-58
2023/12/10 07:20:43;;;;;;;17.67;4.18;;;;;;;8.36;85.15;100379.63;5113610;28;20051;-58
2023/12/10 07:23:09;;;;;;;22.92;5.57;;;;;;;8.45;83.94;100385.34;5114224;27;20524;-58
2023/12/10 07:25:37;;;;;;;20.23;4.53;;;;;;;8.40;83.98;100378.53;5099644;27;20110;-58
2023/12/10 07:28:03;;;;;;;15.45;3.92;;;;;;;8.44;84.36;100404.84;5115336;27;20036;-58
2023/12/10 07:30:31;;;;;;;22.45;4.13;;;;;;;8.45;84.49;100414.50;5113430;28;20059;-58
2023/12/10 07:32:56;;;;;;;21.02;4.60;;;;;;;8.32;84.08;100401.09;5113537;28;20453;-58
2023/12/10 07:35:22;;;;;;;24.33;5.55;;;;;;;8.33;85.82;100410.78;5097068;28;20129;-58
2023/12/10 07:37:47;;;;;;;18.25;4.93;;;;;;;8.32;84.38;100415.19;5098471;28;20027;-58
2023/12/10 07:40:13;;;;;;;19.52;4.45;;;;;;;8.33;85.53;100432.81;5095054;28;20039;-58
2023/12/10 07:42:39;;;;;;;18.60;4.72;;;;;;;8.36;85.35;100437.09;5096391;28;20060;-59
2023/12/10 07:45:07;;;;;;;24.10;4.93;;;;;;;8.35;85.94;100438.00;5094823;28;20027;-58
2023/12/10 07:47:32;;;;;;;24.30;4.65;;;;;;;8.34;85.87;100446.91;5116866;27;20028;-58
2023/12/10 07:49:58;;;;;;;19.13;5.38;;;;;;;8.29;86.63;100448.97;5112934;28;20489;-58
2023/12/10 07:52:23;;;;;;;21.63;4.40;;;;;;;8.24;86.46;100446.63;5113218;28;20054;-59
2023/12/10 07:54:51;;;;;;;16.95;4.40;;;;;;;8.29;87.34;100460.41;5114419;27;20088;-58
2023/12/10 07:57:17;;;;;;;27.97;6.40;;;;;;;8.26;87.90;100460.59;5114381;27;20023;-58
2023/12/10 07:59:43;;;;;;;21.73;4.82;;;;;;;8.25;88.21;100464.22;5113093;27;20307;-58
2023/12/10 08:02:08;;;;;;;26.05;5.03;;;;;;;8.34;87.89;100466.31;5113736;27;20080;-58
2023/12/10 08:04:34;;;;;;;18.15;4.32;;;;;;;8.25;88.65;100450.13;5078557;28;20095;-58
2023/12/10 08:06:59;;;;;;;19.40;4.63;;;;;;;8.24;88.61;100467.81;5107155;27;20410;-58
2023/12/10 08:09:24;;;;;;;33.75;5.38;;;;;;;8.31;88.54;100466.50;5126539;27;20038;-58
2023/12/10 08:11:50;;;;;;;14.13;4.32;;;;;;;8.28;88.65;100460.53;5114462;27;20450;-58
2023/12/10 08:14:15;;;;;;;19.38;4.38;;;;;;;8.26;89.04;100468.56;5115417;27;20062;-58
2023/12/10 08:16:41;;;;;;;19.20;4.22;;;;;;;8.25;89.71;100476.59;5123722;27;20023;-58
2023/12/10 08:19:06;;;;;;;18.13;4.57;;;;;;;8.31;89.62;100470.94;5095467;28;20489;-58
2023/12/10 08:21:31;;;;;;;25.55;5.10;;;;;;;8.26;90.23;100487.09;5113714;27;20474;-58
2023/12/10 08:23:57;;;;;;;25.33;4.22;;;;;;;8.24;89.85;100483.72;5113264;28;20080;-58
2023/12/10 08:26:22;;;;;;;18.70;4.43;;;;;;;8.31;89.84;100495.63;5114485;27;20390;-58
2023/12/10 08:28:48;;;;;;;22.00;5.18;;;;;;;8.12;90.29;100485.28;5126579;27;20038;-58
2023/12/10 08:31:13;;;;;;;25.08;5.53;;;;;;;8.27;90.50;100509.19;5122231;27;20036;-58
2023/12/10 08:33:39;;;;;;;13.75;3.67;;;;;;;8.32;89.57;100510.56;5125207;27;20019;-58
2023/12/10 08:36:07;;;;;;;17.67;4.25;;;;;;;8.30;89.97;100530.19;5095810;27;20106;-58
2023/12/10 08:38:32;;;;;;;17.92;4.70;;;;;;;8.28;90.44;100524.97;5108850;27;20027;-58
2023/12/10 08:40:58;;;;;;;23.90;4.22;;;;;;;8.26;89.58;100526.00;5113258;28;20106;-58
2023/12/10 08:43:23;;;;;;;15.02;4.05;;;;;;;8.29;90.06;100536.41;5113868;27;20024;-58
2023/12/10 08:45:49;;;;;;;18.67;4.45;;;;;;;8.26;90.82;100531.28;5133158;27;20072;-58
2023/12/10 08:48:14;;;;;;;15.93;4.75;;;;;;;8.32;90.17;100530.94;5115438;27;20143;-58
2023/12/10 08:50:40;;;;;;;19.98;5.10;;;;;;;8.29;91.26;100531.97;5112796;28;20139;-58
2023/12/10 08:53:05;;;;;;;15.73;4.03;;;;;;;8.33;90.30;100527.34;5122385;27;20530;-58
2023/12/10 08:55:31;;;;;;;25.95;5.25;;;;;;;8.33;89.99;100541.44;5100160;28;20139;-58
2023/12/10 08:57:56;;;;;;;26.38;6.18;;;;;;;8.31;90.63;100543.34;5121147;27;20027;-59
2023/12/10 09:00:21;;;;;;;16.63;4.68;;;;;;;8.33;90.36;100545.91;5131053;27;20023;-58
2023/12/10 09:02:47;;;;;;;18.92;4.72;;;;;;;8.30;90.19;100546.94;5121475;27;20031;-58
2023/12/10 09:05:12;;;;;;;16.63;4.07;;;;;;;8.25;90.53;100546.34;5133199;27;20050;-58
2023/12/10 09:07:38;;;;;;;17.02;4.15;;;;;;;8.33;90.66;100545.91;5122242;27;20077;-58
2023/12/10 09:10:04;;;;;;;22.08;4.88;;;;;;;8.28;91.08;100553.25;5112793;28;20027;-58
2023/12/10 09:12:29;;;;;;;17.52;3.70;;;;;;;8.29;91.38;100558.44;5112906;28;20020;-58
2023/12/10 09:14:55;;;;;;;17.98;4.47;;;;;;;8.28;90.96;100547.97;5113336;27;20118;-58
2023/12/10 09:17:21;;;;;;;16.65;3.60;;;;;;;8.32;91.30;100557.44;5112249;28;20023;-58
2023/12/10 09:19:47;;;;;;;15.55;4.18;;;;;;;8.33;91.11;100548.56;5112614;28;20027;-58
2023/12/10 09:22:12;;;;;;;18.15;3.75;;;;;;;8.33;91.31;100570.59;5112443;28;20488;-58
2023/12/10 09:24:40;;;;;;;19.98;4.50;;;;;;;8.39;91.10;100567.63;5113268;27;20047;-58
2023/12/10 09:27:08;;;;;;;20.42;4.68;;;;;;;8.45;91.63;100560.25;5094266;28;20123;-58
2023/12/10 09:29:38;;;;;;;26.73;5.15;;;;;;;8.49;91.08;100554.66;5112312;28;20035;-58
2023/12/10 09:32:07;;;;;;;17.13;4.20;;;;;;;8.57;90.93;100564.84;5093618;28;20061;-58
2023/12/10 09:34:36;;;;;;;15.73;4.18;;;;;;;8.57;91.65;100570.97;5113462;28;20042;-58
2023/12/10 09:37:02;;;;;;;26.08;5.10;;;;;;;8.49;92.52;100556.47;5111900;28;20031;-58
2023/12/10 09:39:27;;;;;;;17.52;4.90;;;;;;;8.57;92.99;100570.97;5111983;27;20423;-58
2023/12/10 09:41:53;;;;;;;16.88;4.32;;;;;;;8.57;91.80;100556.88;5118354;27;20019;-58
2023/12/10 09:44:18;;;;;;;16.85;4.55;;;;;;;8.58;92.30;100559.44;5113509;28;20428;-58
2023/12/10 09:46:44;;;;;;;23.90;5.25;;;;;;;8.63;92.83;100580.38;5093280;28;20072;-59
2023/12/10 09:49:10;;;;;;;18.48;4.65;;;;;;;8.70;92.35;100560.50;5111867;28;20023;-58
2023/12/10 09:51:36;;;;;;;20.00;3.97;;;;;;;8.66;92.24;100548.38;5125302;28;20035;-58
2023/12/10 09:54:02;;;;;;;21.00;4.18;;;;;;;8.80;90.72;100553.72;5131371;28;20031;-58
2023/12/10 09:56:27;;;;;;;13.20;4.13;;;;;;;8.84;90.43;100570.28;5114546;28;20137;-58
2023/12/10 09:58:53;;;;;;;27.33;8.95;;;;;;;8.68;92.40;100580.97;5112216;28;20057;-58
2023/12/10 10:01:18;;;;;;;16.75;4.97;;;;;;;8.89;91.07;100562.06;5111362;28;20489;-58
2023/12/10 10:03:44;;;;;;;17.38;4.25;;;;;;;8.85;91.94;100561.38;5093637;28;20492;-58
2023/12/10 10:06:09;;;;;;;23.00;4.15;;;;;;;8.84;92.01;100564.97;5124101;28;20030;-58
2023/12/10 10:08:35;;;;;;;20.45;4.30;;;;;;;8.83;92.53;100558.81;5111895;28;20027;-58
2023/12/10 10:11:00;;;;;;;24.17;4.22;;;;;;;8.97;92.52;100563.31;5111763;28;20103;-59
2023/12/10 10:13:26;;;;;;;16.35;4.15;;;;;;;9.04;91.83;100561.97;5113159;28;20015;-58
2023/12/10 10:15:53;;;;;;;20.10;4.63;;;;;;;9.07;92.13;100561.78;5112196;28;20069;-58
2023/12/10 10:18:19;;;;;;;19.13;4.70;;;;;;;9.14;92.39;100548.97;5116679;28;20558;-58
2023/12/10 10:20:45;;;;;;;19.50;4.55;;;;;;;9.42;91.42;100544.63;5111780;28;20552;-59
2023/12/10 10:23:10;;;;;;;29.92;5.20;;;;;;;9.65;89.89;100538.69;5111947;28;20027;-58
2023/12/10 10:25:36;;;;;;;25.30;4.78;;;;;;;9.94;88.33;100535.94;5111699;28;20119;-58
2023/12/10 10:28:02;;;;;;;24.63;5.68;;;;;;;10.19;86.84;100538.69;5112693;28;20132;-58
2023/12/10 10:30:28;;;;;;;21.90;5.00;;;;;;;10.48;85.60;100546.56;5111375;28;20023;-58
2023/12/10 10:32:55;;;;;;;22.38;4.80;;;;;;;10.90;84.33;100553.38;5093423;28;20474;-58
2023/12/10 10:35:20;;;;;;;19.45;4.18;;;;;;;11.20;81.83;100546.88;5090020;27;20119;-59
2023/12/10 10:37:47;;;;;;;14.20;4.50;;;;;;;11.45;80.21;100558.47;5133910;27;20428;-59
2023/12/10 10:40:13;;;;;;;23.52;7.75;;;;;;;11.51;78.65;100561.53;5115695;28;20031;-59
2023/12/10 10:42:38;;;;;;;21.23;6.80;;;;;;;11.56;77.83;100561.22;5115579;28;20024;-59
2023/12/10 10:45:04;;;;;;;20.77;6.63;;;;;;;11.68;76.83;100567.47;5101030;27;20072;-59
2023/12/10 10:47:32;;;;;;;24.67;7.03;;;;;;;11.67;76.81;100576.41;5127974;27;20382;-59
2023/12/10 10:50:00;;;;;;;24.38;6.90;;;;;;;11.73;76.37;100575.97;5105548;28;20062;-59
2023/12/10 10:52:33;;;;;;;22.10;7.30;;;;;;;11.34;77.75;100572.53;5115790;27;20052;-58
2023/12/10 10:55:00;;;;;;;23.23;7.50;;;;;;;11.14;78.36;100565.94;5098038;27;20019;-59
2023/12/10 10:57:30;;;;;;;24.50;6.97;;;;;;;11.23;78.13;100561.78;5104284;27;20490;-59
2023/12/10 10:59:56;;;;;;;24.48;7.60;;;;;;;11.40;78.04;100541.97;5104695;28;20106;-59
2023/12/10 11:02:22;;;;;;;23.48;6.65;;;;;;;11.55;78.04;100573.66;5105580;27;20370;-59
2023/12/10 11:04:49;;;;;;;18.63;6.32;;;;;;;11.49;76.07;100566.13;5116921;27;20106;-59
2023/12/10 11:07:16;;;;;;;24.02;6.45;;;;;;;11.16;76.73;100557.88;5134735;27;20110;-59
2023/12/10 11:10:02;;;;;;;27.38;7.22;;;;;;;10.90;79.71;100556.06;5134916;27;20027;-59
2023/12/10 11:12:44;;;;;;;20.35;6.20;;;;;;;10.67;80.53;100551.47;5134372;27;20034;-59
2023/12/10 11:15:16;;;;;;;21.48;6.75;;;;;;;10.57;80.37;100545.94;5134249;27;20510;-58
2023/12/10 11:17:50;;;;;;;26.73;7.40;;;;;;;10.54;81.06;100537.31;5134739;27;20028;-59
2023/12/10 11:20:36;;;;;;;19.27;4.85;;;;;;;11.02;78.70;100554.34;5110609;28;20398;-59
2023/12/10 11:23:06;;;;;;;15.38;3.97;;;;;;;10.56;80.34;100533.59;5114733;28;20359;-59